sensor_id;sensor_type;location;lat;lon;timestamp;P1;durP1;ratioP1;P2;durP2;ratioP2
67757;SDS011;54562;47.620;18.786;2023-07-02T00:03:00;17.50;;;11.90;;
67757;SDS011;54562;47.620;18.786;2023-07-02T00:06:07;18.80;;;12.20;;
67757;SDS011;54562;47.620;18.786;2023-07-02T00:09:13;18.80;;;13.20;;
67757;SDS011;54562;47.620;18.786;2023-07-02T00:12:21;19.60;;;13.00;;
67757;SDS011;54562;47.620;18.786;2023-07-02T00:15:27;19.10;;;12.60;;
67757;SDS011;54562;47.620;18.786;2023-07-02T00:18:34;19.10;;;12.90;;
67757;SDS011;54562;47.620;18.786;2023-07-02T00:21:40;17.60;;;12.30;;
67757;SDS011;54562;47.620;18.786;2023-07-02T00:24:47;15.50;;;12.40;;
67757;SDS011;54562;47.620;18.786;2023-07-02T00:27:54;20.40;;;11.90;;
67757;SDS011;54562;47.620;18.786;2023-07-02T00:31:00;18.30;;;12.60;;
67757;SDS011;54562;47.620;18.786;2023-07-02T00:34:06;20.10;;;12.00;;
67757;SDS011;54562;47.620;18.786;2023-07-02T00:37:12;17.50;;;12.30;;
67757;SDS011;54562;47.620;18.786;2023-07-02T00:40:19;19.10;;;12.30;;
67757;SDS011;54562;47.620;18.786;2023-07-02T00:43:25;19.10;;;12.20;;
67757;SDS011;54562;47.620;18.786;2023-07-02T00:46:31;17.60;;;13.10;;
67757;SDS011;54562;47.620;18.786;2023-07-02T00:49:38;17.20;;;12.30;;
67757;SDS011;54562;47.620;18.786;2023-07-02T00:52:45;18.50;;;12.20;;
67757;SDS011;54562;47.620;18.786;2023-07-02T00:55:51;17.40;;;12.10;;
67757;SDS011;54562;47.620;18.786;2023-07-02T00:58:58;21.30;;;13.10;;
67757;SDS011;54562;47.620;18.786;2023-07-02T01:02:04;20.10;;;13.30;;
67757;SDS011;54562;47.620;18.786;2023-07-02T01:05:15;19.70;;;13.10;;
67757;SDS011;54562;47.620;18.786;2023-07-02T01:08:26;19.30;;;12.60;;
67757;SDS011;54562;47.620;18.786;2023-07-02T01:11:32;18.90;;;12.50;;
67757;SDS011;54562;47.620;18.786;2023-07-02T01:14:41;18.60;;;12.60;;
67757;SDS011;54562;47.620;18.786;2023-07-02T01:17:50;20.80;;;12.50;;
67757;SDS011;54562;47.620;18.786;2023-07-02T01:20:58;18.00;;;12.60;;
67757;SDS011;54562;47.620;18.786;2023-07-02T01:24:05;17.80;;;12.40;;
67757;SDS011;54562;47.620;18.786;2023-07-02T01:27:12;19.40;;;12.20;;
67757;SDS011;54562;47.620;18.786;2023-07-02T01:30:18;19.70;;;12.40;;
67757;SDS011;54562;47.620;18.786;2023-07-02T01:33:25;19.00;;;12.50;;
67757;SDS011;54562;47.620;18.786;2023-07-02T01:36:32;17.60;;;12.20;;
67757;SDS011;54562;47.620;18.786;2023-07-02T01:39:38;18.20;;;11.40;;
67757;SDS011;54562;47.620;18.786;2023-07-02T01:42:44;17.90;;;11.30;;
67757;SDS011;54562;47.620;18.786;2023-07-02T01:45:50;17.60;;;11.40;;
67757;SDS011;54562;47.620;18.786;2023-07-02T01:48:59;18.10;;;11.40;;
67757;SDS011;54562;47.620;18.786;2023-07-02T01:52:05;17.30;;;11.00;;
67757;SDS011;54562;47.620;18.786;2023-07-02T01:55:12;16.60;;;11.30;;
67757;SDS011;54562;47.620;18.786;2023-07-02T01:58:20;17.70;;;11.20;;
67757;SDS011;54562;47.620;18.786;2023-07-02T02:01:26;16.90;;;10.40;;
67757;SDS011;54562;47.620;18.786;2023-07-02T02:04:32;16.20;;;11.20;;
67757;SDS011;54562;47.620;18.786;2023-07-02T02:07:40;15.70;;;10.50;;
67757;SDS011;54562;47.620;18.786;2023-07-02T02:10:47;15.70;;;10.90;;
67757;SDS011;54562;47.620;18.786;2023-07-02T02:13:54;17.90;;;11.70;;
67757;SDS011;54562;47.620;18.786;2023-07-02T02:17:01;16.20;;;11.00;;
67757;SDS011;54562;47.620;18.786;2023-07-02T02:20:08;16.20;;;10.90;;
67757;SDS011;54562;47.620;18.786;2023-07-02T02:23:15;16.70;;;11.20;;
67757;SDS011;54562;47.620;18.786;2023-07-02T02:26:22;16.70;;;10.80;;
67757;SDS011;54562;47.620;18.786;2023-07-02T02:29:28;16.00;;;10.80;;
67757;SDS011;54562;47.620;18.786;2023-07-02T02:32:35;17.30;;;11.00;;
67757;SDS011;54562;47.620;18.786;2023-07-02T02:35:41;16.80;;;11.00;;
67757;SDS011;54562;47.620;18.786;2023-07-02T02:38:48;16.90;;;11.10;;
67757;SDS011;54562;47.620;18.786;2023-07-02T02:41:55;15.00;;;10.80;;
67757;SDS011;54562;47.620;18.786;2023-07-02T02:45:01;16.90;;;11.00;;
67757;SDS011;54562;47.620;18.786;2023-07-02T02:48:08;17.30;;;10.90;;
67757;SDS011;54562;47.620;18.786;2023-07-02T02:51:14;16.40;;;10.80;;
67757;SDS011;54562;47.620;18.786;2023-07-02T02:54:21;14.80;;;10.20;;
67757;SDS011;54562;47.620;18.786;2023-07-02T02:57:27;16.80;;;10.50;;
67757;SDS011;54562;47.620;18.786;2023-07-02T03:00:33;15.20;;;10.30;;
67757;SDS011;54562;47.620;18.786;2023-07-02T03:03:41;16.30;;;10.00;;
67757;SDS011;54562;47.620;18.786;2023-07-02T03:06:49;18.20;;;10.90;;
67757;SDS011;54562;47.620;18.786;2023-07-02T03:09:56;15.30;;;10.20;;
67757;SDS011;54562;47.620;18.786;2023-07-02T03:13:02;18.70;;;10.80;;
67757;SDS011;54562;47.620;18.786;2023-07-02T03:16:08;18.30;;;9.80;;
67757;SDS011;54562;47.620;18.786;2023-07-02T03:19:15;15.10;;;9.70;;
67757;SDS011;54562;47.620;18.786;2023-07-02T03:22:21;15.60;;;10.10;;
67757;SDS011;54562;47.620;18.786;2023-07-02T03:25:27;14.10;;;9.50;;
67757;SDS011;54562;47.620;18.786;2023-07-02T03:28:34;15.50;;;9.80;;
67757;SDS011;54562;47.620;18.786;2023-07-02T03:31:40;14.00;;;9.80;;
67757;SDS011;54562;47.620;18.786;2023-07-02T03:34:46;16.50;;;9.80;;
67757;SDS011;54562;47.620;18.786;2023-07-02T03:37:52;14.70;;;9.20;;
67757;SDS011;54562;47.620;18.786;2023-07-02T03:41:00;15.50;;;9.00;;
67757;SDS011;54562;47.620;18.786;2023-07-02T03:44:06;15.70;;;9.00;;
67757;SDS011;54562;47.620;18.786;2023-07-02T03:47:13;13.60;;;8.90;;
67757;SDS011;54562;47.620;18.786;2023-07-02T03:50:22;14.20;;;9.30;;
67757;SDS011;54562;47.620;18.786;2023-07-02T03:53:29;12.80;;;8.30;;
67757;SDS011;54562;47.620;18.786;2023-07-02T03:56:35;15.70;;;9.10;;
67757;SDS011;54562;47.620;18.786;2023-07-02T03:59:41;15.00;;;9.40;;
67757;SDS011;54562;47.620;18.786;2023-07-02T04:02:48;15.90;;;9.30;;
67757;SDS011;54562;47.620;18.786;2023-07-02T04:05:54;15.20;;;8.50;;
67757;SDS011;54562;47.620;18.786;2023-07-02T04:09:00;14.90;;;8.20;;
67757;SDS011;54562;47.620;18.786;2023-07-02T04:12:08;15.40;;;8.90;;
67757;SDS011;54562;47.620;18.786;2023-07-02T04:15:15;14.30;;;9.00;;
67757;SDS011;54562;47.620;18.786;2023-07-02T04:18:21;14.00;;;8.80;;
67757;SDS011;54562;47.620;18.786;2023-07-02T04:21:27;12.00;;;8.10;;
67757;SDS011;54562;47.620;18.786;2023-07-02T04:24:34;12.80;;;8.50;;
67757;SDS011;54562;47.620;18.786;2023-07-02T04:27:41;13.00;;;8.40;;
67757;SDS011;54562;47.620;18.786;2023-07-02T04:30:53;13.20;;;8.30;;
67757;SDS011;54562;47.620;18.786;2023-07-02T04:33:59;14.80;;;8.50;;
67757;SDS011;54562;47.620;18.786;2023-07-02T04:37:05;12.70;;;8.40;;
67757;SDS011;54562;47.620;18.786;2023-07-02T04:40:13;13.70;;;8.70;;
67757;SDS011;54562;47.620;18.786;2023-07-02T04:43:19;12.50;;;7.90;;
67757;SDS011;54562;47.620;18.786;2023-07-02T04:46:25;14.30;;;8.70;;
67757;SDS011;54562;47.620;18.786;2023-07-02T04:49:31;13.50;;;8.20;;
67757;SDS011;54562;47.620;18.786;2023-07-02T04:52:37;14.70;;;8.40;;
67757;SDS011;54562;47.620;18.786;2023-07-02T04:55:44;14.20;;;8.00;;
67757;SDS011;54562;47.620;18.786;2023-07-02T04:58:51;12.00;;;7.70;;
67757;SDS011;54562;47.620;18.786;2023-07-02T05:01:57;13.20;;;8.40;;
67757;SDS011;54562;47.620;18.786;2023-07-02T05:05:04;11.90;;;7.80;;
67757;SDS011;54562;47.620;18.786;2023-07-02T05:08:11;11.60;;;8.10;;
67757;SDS011;54562;47.620;18.786;2023-07-02T05:11:17;14.60;;;8.30;;
67757;SDS011;54562;47.620;18.786;2023-07-02T05:14:23;13.40;;;8.10;;
67757;SDS011;54562;47.620;18.786;2023-07-02T05:17:29;11.40;;;7.70;;
67757;SDS011;54562;47.620;18.786;2023-07-02T05:20:38;12.90;;;8.80;;
67757;SDS011;54562;47.620;18.786;2023-07-02T05:23:44;14.50;;;8.30;;
67757;SDS011;54562;47.620;18.786;2023-07-02T05:26:51;12.80;;;7.70;;
67757;SDS011;54562;47.620;18.786;2023-07-02T05:29:57;12.50;;;8.00;;
67757;SDS011;54562;47.620;18.786;2023-07-02T05:33:04;14.70;;;8.20;;
67757;SDS011;54562;47.620;18.786;2023-07-02T05:36:10;14.00;;;7.60;;
67757;SDS011;54562;47.620;18.786;2023-07-02T05:39:16;13.30;;;7.70;;
67757;SDS011;54562;47.620;18.786;2023-07-02T05:42:24;10.80;;;7.30;;
67757;SDS011;54562;47.620;18.786;2023-07-02T05:45:30;11.40;;;6.70;;
67757;SDS011;54562;47.620;18.786;2023-07-02T05:48:36;10.50;;;6.20;;
67757;SDS011;54562;47.620;18.786;2023-07-02T05:51:42;11.20;;;5.80;;
67757;SDS011;54562;47.620;18.786;2023-07-02T05:54:49;10.60;;;5.90;;
67757;SDS011;54562;47.620;18.786;2023-07-02T05:57:55;10.50;;;5.70;;
67757;SDS011;54562;47.620;18.786;2023-07-02T06:04:09;8.50;;;4.60;;
67757;SDS011;54562;47.620;18.786;2023-07-02T06:07:15;9.40;;;4.80;;
67757;SDS011;54562;47.620;18.786;2023-07-02T06:10:22;8.30;;;4.40;;
67757;SDS011;54562;47.620;18.786;2023-07-02T06:13:29;8.40;;;4.50;;
67757;SDS011;54562;47.620;18.786;2023-07-02T06:16:35;7.50;;;4.30;;
67757;SDS011;54562;47.620;18.786;2023-07-02T06:19:44;8.60;;;4.40;;
67757;SDS011;54562;47.620;18.786;2023-07-02T06:22:50;10.40;;;4.20;;
67757;SDS011;54562;47.620;18.786;2023-07-02T06:25:56;7.90;;;4.20;;
67757;SDS011;54562;47.620;18.786;2023-07-02T06:29:05;7.60;;;4.30;;
67757;SDS011;54562;47.620;18.786;2023-07-02T06:32:11;7.50;;;4.30;;
67757;SDS011;54562;47.620;18.786;2023-07-02T06:35:18;7.90;;;4.70;;
67757;SDS011;54562;47.620;18.786;2023-07-02T06:38:24;7.80;;;4.10;;
67757;SDS011;54562;47.620;18.786;2023-07-02T06:41:30;7.50;;;4.30;;
67757;SDS011;54562;47.620;18.786;2023-07-02T06:44:36;7.90;;;4.20;;
67757;SDS011;54562;47.620;18.786;2023-07-02T06:47:43;6.80;;;3.60;;
67757;SDS011;54562;47.620;18.786;2023-07-02T06:50:49;9.30;;;4.30;;
67757;SDS011;54562;47.620;18.786;2023-07-02T06:53:55;8.80;;;4.30;;
67757;SDS011;54562;47.620;18.786;2023-07-02T06:57:02;9.30;;;4.50;;
67757;SDS011;54562;47.620;18.786;2023-07-02T07:00:09;8.50;;;4.20;;
67757;SDS011;54562;47.620;18.786;2023-07-02T07:03:17;9.00;;;4.70;;
67757;SDS011;54562;47.620;18.786;2023-07-02T07:06:24;8.10;;;4.30;;
67757;SDS011;54562;47.620;18.786;2023-07-02T07:09:30;6.90;;;4.00;;
67757;SDS011;54562;47.620;18.786;2023-07-02T07:12:37;8.50;;;4.10;;
67757;SDS011;54562;47.620;18.786;2023-07-02T07:15:43;7.20;;;4.30;;
67757;SDS011;54562;47.620;18.786;2023-07-02T07:18:50;7.10;;;3.70;;
67757;SDS011;54562;47.620;18.786;2023-07-02T07:21:57;7.20;;;3.80;;
67757;SDS011;54562;47.620;18.786;2023-07-02T07:25:04;7.60;;;3.70;;
67757;SDS011;54562;47.620;18.786;2023-07-02T07:28:12;7.30;;;3.70;;
67757;SDS011;54562;47.620;18.786;2023-07-02T07:31:20;6.30;;;3.60;;
67757;SDS011;54562;47.620;18.786;2023-07-02T07:34:27;6.40;;;3.60;;
67757;SDS011;54562;47.620;18.786;2023-07-02T07:37:33;7.70;;;3.80;;
67757;SDS011;54562;47.620;18.786;2023-07-02T07:40:39;8.90;;;3.80;;
67757;SDS011;54562;47.620;18.786;2023-07-02T07:43:46;8.10;;;4.50;;
67757;SDS011;54562;47.620;18.786;2023-07-02T07:46:53;7.30;;;4.20;;
67757;SDS011;54562;47.620;18.786;2023-07-02T07:50:00;7.40;;;4.30;;
67757;SDS011;54562;47.620;18.786;2023-07-02T07:53:12;8.90;;;4.30;;
67757;SDS011;54562;47.620;18.786;2023-07-02T07:56:18;7.20;;;4.40;;
67757;SDS011;54562;47.620;18.786;2023-07-02T07:59:25;7.90;;;4.60;;
67757;SDS011;54562;47.620;18.786;2023-07-02T08:02:32;7.30;;;4.40;;
67757;SDS011;54562;47.620;18.786;2023-07-02T08:05:38;7.00;;;4.20;;
67757;SDS011;54562;47.620;18.786;2023-07-02T08:08:44;8.10;;;4.20;;
67757;SDS011;54562;47.620;18.786;2023-07-02T08:11:51;9.40;;;4.30;;
67757;SDS011;54562;47.620;18.786;2023-07-02T08:14:57;10.20;;;4.70;;
67757;SDS011;54562;47.620;18.786;2023-07-02T08:18:04;9.10;;;4.40;;
67757;SDS011;54562;47.620;18.786;2023-07-02T08:21:12;7.70;;;4.40;;
67757;SDS011;54562;47.620;18.786;2023-07-02T08:24:18;7.10;;;4.00;;
67757;SDS011;54562;47.620;18.786;2023-07-02T08:27:25;15.80;;;4.60;;
67757;SDS011;54562;47.620;18.786;2023-07-02T08:30:31;8.00;;;4.10;;
67757;SDS011;54562;47.620;18.786;2023-07-02T08:33:38;8.80;;;4.40;;
67757;SDS011;54562;47.620;18.786;2023-07-02T08:36:45;8.10;;;4.40;;
67757;SDS011;54562;47.620;18.786;2023-07-02T08:39:51;8.50;;;4.30;;
67757;SDS011;54562;47.620;18.786;2023-07-02T08:42:57;7.50;;;4.20;;
67757;SDS011;54562;47.620;18.786;2023-07-02T08:46:05;8.30;;;4.10;;
67757;SDS011;54562;47.620;18.786;2023-07-02T08:49:11;8.00;;;4.00;;
67757;SDS011;54562;47.620;18.786;2023-07-02T08:52:18;13.50;;;4.60;;
67757;SDS011;54562;47.620;18.786;2023-07-02T08:55:24;10.70;;;4.40;;
67757;SDS011;54562;47.620;18.786;2023-07-02T08:58:32;7.80;;;4.10;;
67757;SDS011;54562;47.620;18.786;2023-07-02T09:01:48;7.20;;;4.30;;
67757;SDS011;54562;47.620;18.786;2023-07-02T09:04:59;8.10;;;4.30;;
67757;SDS011;54562;47.620;18.786;2023-07-02T09:08:06;8.50;;;4.10;;
67757;SDS011;54562;47.620;18.786;2023-07-02T09:11:13;8.10;;;4.00;;
67757;SDS011;54562;47.620;18.786;2023-07-02T09:14:27;9.90;;;4.00;;
67757;SDS011;54562;47.620;18.786;2023-07-02T09:17:35;8.50;;;3.80;;
67757;SDS011;54562;47.620;18.786;2023-07-02T09:20:42;8.20;;;3.80;;
67757;SDS011;54562;47.620;18.786;2023-07-02T09:23:49;10.20;;;3.50;;
67757;SDS011;54562;47.620;18.786;2023-07-02T09:26:56;8.10;;;4.10;;
67757;SDS011;54562;47.620;18.786;2023-07-02T09:30:07;6.50;;;3.80;;
67757;SDS011;54562;47.620;18.786;2023-07-02T09:33:17;9.10;;;4.10;;
67757;SDS011;54562;47.620;18.786;2023-07-02T09:36:23;7.10;;;3.90;;
67757;SDS011;54562;47.620;18.786;2023-07-02T09:39:30;7.20;;;4.00;;
67757;SDS011;54562;47.620;18.786;2023-07-02T09:42:37;9.50;;;3.90;;
67757;SDS011;54562;47.620;18.786;2023-07-02T09:45:46;7.20;;;4.10;;
67757;SDS011;54562;47.620;18.786;2023-07-02T09:48:53;7.40;;;3.90;;
67757;SDS011;54562;47.620;18.786;2023-07-02T09:52:00;8.80;;;4.00;;
67757;SDS011;54562;47.620;18.786;2023-07-02T09:55:08;6.50;;;3.90;;
67757;SDS011;54562;47.620;18.786;2023-07-02T09:58:14;6.40;;;3.70;;
67757;SDS011;54562;47.620;18.786;2023-07-02T10:01:21;7.30;;;3.90;;
67757;SDS011;54562;47.620;18.786;2023-07-02T10:04:27;6.50;;;3.60;;
67757;SDS011;54562;47.620;18.786;2023-07-02T10:07:43;7.50;;;3.80;;
67757;SDS011;54562;47.620;18.786;2023-07-02T10:10:49;7.10;;;3.90;;
67757;SDS011;54562;47.620;18.786;2023-07-02T10:13:59;8.40;;;3.70;;
67757;SDS011;54562;47.620;18.786;2023-07-02T10:17:06;9.40;;;3.70;;
67757;SDS011;54562;47.620;18.786;2023-07-02T10:20:12;10.50;;;4.80;;
67757;SDS011;54562;47.620;18.786;2023-07-02T10:23:19;7.60;;;3.90;;
67757;SDS011;54562;47.620;18.786;2023-07-02T10:26:26;8.20;;;3.80;;
67757;SDS011;54562;47.620;18.786;2023-07-02T10:29:35;6.60;;;3.80;;
67757;SDS011;54562;47.620;18.786;2023-07-02T10:32:41;8.60;;;3.80;;
67757;SDS011;54562;47.620;18.786;2023-07-02T10:35:48;7.30;;;3.80;;
67757;SDS011;54562;47.620;18.786;2023-07-02T10:39:00;7.90;;;4.10;;
67757;SDS011;54562;47.620;18.786;2023-07-02T10:42:09;8.80;;;3.80;;
67757;SDS011;54562;47.620;18.786;2023-07-02T10:45:15;7.70;;;3.50;;
67757;SDS011;54562;47.620;18.786;2023-07-02T10:48:22;8.10;;;3.80;;
67757;SDS011;54562;47.620;18.786;2023-07-02T10:51:28;8.80;;;3.90;;
67757;SDS011;54562;47.620;18.786;2023-07-02T10:54:44;9.30;;;3.50;;
67757;SDS011;54562;47.620;18.786;2023-07-02T10:57:51;6.50;;;3.40;;
67757;SDS011;54562;47.620;18.786;2023-07-02T11:01:08;8.00;;;3.80;;
67757;SDS011;54562;47.620;18.786;2023-07-02T11:04:14;10.60;;;3.60;;
67757;SDS011;54562;47.620;18.786;2023-07-02T11:07:23;8.70;;;3.60;;
67757;SDS011;54562;47.620;18.786;2023-07-02T11:10:29;7.50;;;3.50;;
67757;SDS011;54562;47.620;18.786;2023-07-02T11:13:45;7.50;;;3.60;;
67757;SDS011;54562;47.620;18.786;2023-07-02T11:16:55;8.10;;;3.80;;
67757;SDS011;54562;47.620;18.786;2023-07-02T11:20:01;6.30;;;3.50;;
67757;SDS011;54562;47.620;18.786;2023-07-02T11:23:17;7.10;;;3.70;;
67757;SDS011;54562;47.620;18.786;2023-07-02T11:29:39;6.40;;;3.50;;
67757;SDS011;54562;47.620;18.786;2023-07-02T11:32:49;8.40;;;3.70;;
67757;SDS011;54562;47.620;18.786;2023-07-02T11:35:57;8.00;;;3.40;;
67757;SDS011;54562;47.620;18.786;2023-07-02T11:39:03;7.60;;;3.30;;
67757;SDS011;54562;47.620;18.786;2023-07-02T11:42:10;6.70;;;3.80;;
67757;SDS011;54562;47.620;18.786;2023-07-02T11:45:16;6.60;;;3.50;;
67757;SDS011;54562;47.620;18.786;2023-07-02T11:48:22;6.50;;;3.30;;
67757;SDS011;54562;47.620;18.786;2023-07-02T11:51:28;8.80;;;3.40;;
67757;SDS011;54562;47.620;18.786;2023-07-02T11:54:35;6.90;;;3.30;;
67757;SDS011;54562;47.620;18.786;2023-07-02T11:57:42;6.50;;;3.40;;
67757;SDS011;54562;47.620;18.786;2023-07-02T12:00:50;8.20;;;3.50;;
67757;SDS011;54562;47.620;18.786;2023-07-02T12:03:56;6.10;;;3.50;;
67757;SDS011;54562;47.620;18.786;2023-07-02T12:07:02;6.90;;;3.00;;
67757;SDS011;54562;47.620;18.786;2023-07-02T12:10:09;6.10;;;2.80;;
67757;SDS011;54562;47.620;18.786;2023-07-02T12:13:17;6.50;;;2.90;;
67757;SDS011;54562;47.620;18.786;2023-07-02T12:16:24;5.90;;;3.10;;
67757;SDS011;54562;47.620;18.786;2023-07-02T12:19:31;6.20;;;3.20;;
67757;SDS011;54562;47.620;18.786;2023-07-02T12:22:37;6.50;;;2.90;;
67757;SDS011;54562;47.620;18.786;2023-07-02T12:25:44;7.10;;;2.90;;
67757;SDS011;54562;47.620;18.786;2023-07-02T12:28:51;5.60;;;2.80;;
67757;SDS011;54562;47.620;18.786;2023-07-02T12:31:58;7.30;;;2.80;;
67757;SDS011;54562;47.620;18.786;2023-07-02T12:35:07;6.20;;;2.60;;
67757;SDS011;54562;47.620;18.786;2023-07-02T12:38:14;5.80;;;2.10;;
67757;SDS011;54562;47.620;18.786;2023-07-02T12:41:21;5.30;;;2.10;;
67757;SDS011;54562;47.620;18.786;2023-07-02T12:44:27;4.30;;;1.90;;
67757;SDS011;54562;47.620;18.786;2023-07-02T12:47:34;5.20;;;2.00;;
67757;SDS011;54562;47.620;18.786;2023-07-02T12:50:41;4.20;;;1.80;;
67757;SDS011;54562;47.620;18.786;2023-07-02T12:56:55;3.80;;;1.70;;
67757;SDS011;54562;47.620;18.786;2023-07-02T13:00:01;3.50;;;1.60;;
67757;SDS011;54562;47.620;18.786;2023-07-02T13:03:12;3.90;;;1.70;;
67757;SDS011;54562;47.620;18.786;2023-07-02T13:06:24;3.90;;;1.60;;
67757;SDS011;54562;47.620;18.786;2023-07-02T13:09:31;3.80;;;1.60;;
67757;SDS011;54562;47.620;18.786;2023-07-02T13:12:37;4.00;;;1.70;;
67757;SDS011;54562;47.620;18.786;2023-07-02T13:15:43;4.90;;;1.80;;
67757;SDS011;54562;47.620;18.786;2023-07-02T13:18:50;3.90;;;1.70;;
67757;SDS011;54562;47.620;18.786;2023-07-02T13:21:59;4.00;;;1.80;;
67757;SDS011;54562;47.620;18.786;2023-07-02T13:25:06;4.10;;;1.80;;
67757;SDS011;54562;47.620;18.786;2023-07-02T13:28:13;3.50;;;1.70;;
67757;SDS011;54562;47.620;18.786;2023-07-02T13:31:20;5.20;;;2.00;;
67757;SDS011;54562;47.620;18.786;2023-07-02T13:34:26;4.60;;;2.10;;
67757;SDS011;54562;47.620;18.786;2023-07-02T13:37:33;5.50;;;1.90;;
67757;SDS011;54562;47.620;18.786;2023-07-02T13:40:39;4.20;;;1.90;;
67757;SDS011;54562;47.620;18.786;2023-07-02T13:43:45;7.60;;;2.10;;
67757;SDS011;54562;47.620;18.786;2023-07-02T13:46:52;5.40;;;2.00;;
67757;SDS011;54562;47.620;18.786;2023-07-02T13:49:58;5.20;;;2.00;;
67757;SDS011;54562;47.620;18.786;2023-07-02T13:53:05;4.90;;;1.90;;
67757;SDS011;54562;47.620;18.786;2023-07-02T13:56:11;4.30;;;1.90;;
67757;SDS011;54562;47.620;18.786;2023-07-02T13:59:18;4.20;;;1.90;;
67757;SDS011;54562;47.620;18.786;2023-07-02T14:02:25;4.30;;;1.90;;
67757;SDS011;54562;47.620;18.786;2023-07-02T14:05:34;4.10;;;2.00;;
67757;SDS011;54562;47.620;18.786;2023-07-02T14:08:41;4.50;;;1.80;;
67757;SDS011;54562;47.620;18.786;2023-07-02T14:11:50;6.10;;;1.90;;
67757;SDS011;54562;47.620;18.786;2023-07-02T14:14:57;3.90;;;1.90;;
67757;SDS011;54562;47.620;18.786;2023-07-02T14:18:03;4.60;;;2.20;;
67757;SDS011;54562;47.620;18.786;2023-07-02T14:21:09;4.20;;;1.90;;
67757;SDS011;54562;47.620;18.786;2023-07-02T14:24:16;6.30;;;1.90;;
67757;SDS011;54562;47.620;18.786;2023-07-02T14:27:22;4.20;;;2.00;;
67757;SDS011;54562;47.620;18.786;2023-07-02T14:30:29;4.10;;;1.80;;
67757;SDS011;54562;47.620;18.786;2023-07-02T14:33:36;5.10;;;2.00;;
67757;SDS011;54562;47.620;18.786;2023-07-02T14:36:43;3.90;;;1.80;;
67757;SDS011;54562;47.620;18.786;2023-07-02T14:39:49;5.10;;;2.00;;
67757;SDS011;54562;47.620;18.786;2023-07-02T14:43:08;4.10;;;1.90;;
67757;SDS011;54562;47.620;18.786;2023-07-02T14:46:15;5.20;;;1.90;;
67757;SDS011;54562;47.620;18.786;2023-07-02T14:49:21;4.90;;;2.00;;
67757;SDS011;54562;47.620;18.786;2023-07-02T14:52:28;4.50;;;2.10;;
67757;SDS011;54562;47.620;18.786;2023-07-02T14:55:35;4.60;;;1.90;;
67757;SDS011;54562;47.620;18.786;2023-07-02T14:58:41;7.30;;;2.00;;
67757;SDS011;54562;47.620;18.786;2023-07-02T15:01:47;6.60;;;2.10;;
67757;SDS011;54562;47.620;18.786;2023-07-02T15:04:54;4.80;;;2.00;;
67757;SDS011;54562;47.620;18.786;2023-07-02T15:08:00;6.70;;;2.20;;
67757;SDS011;54562;47.620;18.786;2023-07-02T15:11:06;6.20;;;2.10;;
67757;SDS011;54562;47.620;18.786;2023-07-02T15:14:13;5.30;;;2.10;;
67757;SDS011;54562;47.620;18.786;2023-07-02T15:17:19;6.90;;;2.00;;
67757;SDS011;54562;47.620;18.786;2023-07-02T15:20:26;5.30;;;2.20;;
67757;SDS011;54562;47.620;18.786;2023-07-02T15:23:33;4.30;;;1.90;;
67757;SDS011;54562;47.620;18.786;2023-07-02T15:26:39;4.90;;;2.10;;
67757;SDS011;54562;47.620;18.786;2023-07-02T15:29:45;8.10;;;2.20;;
67757;SDS011;54562;47.620;18.786;2023-07-02T15:32:52;7.00;;;2.40;;
67757;SDS011;54562;47.620;18.786;2023-07-02T15:36:00;11.40;;;2.50;;
67757;SDS011;54562;47.620;18.786;2023-07-02T15:39:07;7.20;;;2.50;;
67757;SDS011;54562;47.620;18.786;2023-07-02T15:42:13;18.10;;;2.80;;
67757;SDS011;54562;47.620;18.786;2023-07-02T15:45:20;6.30;;;2.60;;
67757;SDS011;54562;47.620;18.786;2023-07-02T15:48:27;6.70;;;2.60;;
67757;SDS011;54562;47.620;18.786;2023-07-02T15:51:33;7.80;;;2.70;;
67757;SDS011;54562;47.620;18.786;2023-07-02T15:54:42;6.50;;;2.70;;
67757;SDS011;54562;47.620;18.786;2023-07-02T15:57:49;8.00;;;2.70;;
67757;SDS011;54562;47.620;18.786;2023-07-02T16:00:56;13.20;;;2.90;;
67757;SDS011;54562;47.620;18.786;2023-07-02T16:04:14;7.20;;;2.30;;
67757;SDS011;54562;47.620;18.786;2023-07-02T16:07:21;5.10;;;1.90;;
67757;SDS011;54562;47.620;18.786;2023-07-02T16:10:29;5.10;;;2.20;;
67757;SDS011;54562;47.620;18.786;2023-07-02T16:13:35;5.70;;;2.10;;
67757;SDS011;54562;47.620;18.786;2023-07-02T16:16:42;5.90;;;2.10;;
67757;SDS011;54562;47.620;18.786;2023-07-02T16:19:51;5.30;;;2.00;;
67757;SDS011;54562;47.620;18.786;2023-07-02T16:22:57;5.40;;;2.00;;
67757;SDS011;54562;47.620;18.786;2023-07-02T16:26:03;7.50;;;2.50;;
67757;SDS011;54562;47.620;18.786;2023-07-02T16:29:10;6.20;;;2.00;;
67757;SDS011;54562;47.620;18.786;2023-07-02T16:32:17;4.80;;;2.10;;
67757;SDS011;54562;47.620;18.786;2023-07-02T16:35:26;5.00;;;2.20;;
67757;SDS011;54562;47.620;18.786;2023-07-02T16:38:32;4.90;;;2.40;;
67757;SDS011;54562;47.620;18.786;2023-07-02T16:41:39;5.00;;;2.20;;
67757;SDS011;54562;47.620;18.786;2023-07-02T16:44:49;5.30;;;2.40;;
67757;SDS011;54562;47.620;18.786;2023-07-02T16:47:55;4.90;;;2.40;;
67757;SDS011;54562;47.620;18.786;2023-07-02T16:51:03;5.80;;;2.50;;
67757;SDS011;54562;47.620;18.786;2023-07-02T16:54:11;7.60;;;2.80;;
67757;SDS011;54562;47.620;18.786;2023-07-02T16:57:22;8.40;;;3.10;;
67757;SDS011;54562;47.620;18.786;2023-07-02T17:00:28;7.70;;;2.50;;
67757;SDS011;54562;47.620;18.786;2023-07-02T17:03:34;5.50;;;2.60;;
67757;SDS011;54562;47.620;18.786;2023-07-02T17:06:42;7.30;;;2.50;;
67757;SDS011;54562;47.620;18.786;2023-07-02T17:09:50;6.20;;;2.70;;
67757;SDS011;54562;47.620;18.786;2023-07-02T17:12:56;13.80;;;2.80;;
67757;SDS011;54562;47.620;18.786;2023-07-02T17:16:03;7.90;;;2.70;;
67757;SDS011;54562;47.620;18.786;2023-07-02T17:19:09;7.70;;;2.60;;
67757;SDS011;54562;47.620;18.786;2023-07-02T17:22:21;6.40;;;2.50;;
67757;SDS011;54562;47.620;18.786;2023-07-02T17:25:29;10.20;;;3.20;;
67757;SDS011;54562;47.620;18.786;2023-07-02T17:28:35;6.70;;;2.30;;
67757;SDS011;54562;47.620;18.786;2023-07-02T17:31:42;6.50;;;2.40;;
67757;SDS011;54562;47.620;18.786;2023-07-02T17:34:51;7.10;;;2.40;;
67757;SDS011;54562;47.620;18.786;2023-07-02T17:37:59;5.50;;;2.30;;
67757;SDS011;54562;47.620;18.786;2023-07-02T17:41:06;7.00;;;2.40;;
67757;SDS011;54562;47.620;18.786;2023-07-02T17:44:15;6.80;;;2.10;;
67757;SDS011;54562;47.620;18.786;2023-07-02T17:47:27;4.90;;;2.20;;
67757;SDS011;54562;47.620;18.786;2023-07-02T17:50:34;8.90;;;2.20;;
67757;SDS011;54562;47.620;18.786;2023-07-02T17:53:40;4.40;;;1.90;;
67757;SDS011;54562;47.620;18.786;2023-07-02T17:56:49;5.00;;;2.10;;
67757;SDS011;54562;47.620;18.786;2023-07-02T17:59:56;5.40;;;1.90;;
67757;SDS011;54562;47.620;18.786;2023-07-02T18:03:03;8.40;;;2.10;;
67757;SDS011;54562;47.620;18.786;2023-07-02T18:06:09;4.80;;;2.00;;
67757;SDS011;54562;47.620;18.786;2023-07-02T18:09:16;6.90;;;1.90;;
67757;SDS011;54562;47.620;18.786;2023-07-02T18:12:23;6.20;;;2.00;;
67757;SDS011;54562;47.620;18.786;2023-07-02T18:15:31;5.60;;;2.10;;
67757;SDS011;54562;47.620;18.786;2023-07-02T18:18:37;5.00;;;2.10;;
67757;SDS011;54562;47.620;18.786;2023-07-02T18:21:43;6.10;;;2.00;;
67757;SDS011;54562;47.620;18.786;2023-07-02T18:24:50;6.10;;;2.10;;
67757;SDS011;54562;47.620;18.786;2023-07-02T18:28:04;4.30;;;2.00;;
67757;SDS011;54562;47.620;18.786;2023-07-02T18:31:12;5.40;;;1.80;;
67757;SDS011;54562;47.620;18.786;2023-07-02T18:34:18;4.80;;;2.10;;